createdAt,value
2017-08-12T00:00:13.755Z,18.90
2017-08-12T00:02:42.060Z,19.00
2017-08-12T00:05:10.349Z,18.80
2017-08-12T00:07:38.635Z,18.90
2017-08-12T00:10:06.950Z,18.70
2017-08-12T00:12:36.076Z,19.10
2017-08-12T00:15:04.353Z,18.70
2017-08-12T00:17:32.640Z,18.90
2017-08-12T00:20:00.931Z,19.00
2017-08-12T00:22:29.231Z,18.80
2017-08-12T00:24:57.521Z,18.90
2017-08-12T00:27:26.555Z,18.70
2017-08-12T00:29:55.217Z,18.50
2017-08-12T00:32:23.489Z,18.70
2017-08-12T00:34:51.731Z,18.70
2017-08-12T00:37:20.048Z,18.60
2017-08-12T00:39:49.092Z,18.60
2017-08-12T00:42:17.390Z,18.60
2017-08-12T00:44:45.682Z,18.50
2017-08-12T00:47:14.896Z,18.50
2017-08-12T00:49:43.232Z,18.80
2017-08-12T00:52:11.532Z,18.70
2017-08-12T00:54:40.689Z,18.80
2017-08-12T00:57:09.009Z,18.60
2017-08-12T00:59:37.291Z,18.50
2017-08-12T01:02:05.598Z,18.70
2017-08-12T01:04:33.913Z,18.50
2017-08-12T01:07:02.325Z,18.70
2017-08-12T01:09:30.575Z,18.80
2017-08-12T01:11:58.913Z,18.90
2017-08-12T01:14:27.320Z,18.60
2017-08-12T01:16:55.596Z,18.80
2017-08-12T01:19:23.842Z,18.80
2017-08-12T01:21:52.101Z,18.90
2017-08-12T01:24:21.153Z,18.50
2017-08-12T01:26:49.396Z,18.70
2017-08-12T01:29:17.660Z,18.90
2017-08-12T01:31:45.958Z,18.40
2017-08-12T01:34:14.260Z,18.70
2017-08-12T01:36:42.543Z,18.60
2017-08-12T01:39:10.821Z,18.80
2017-08-12T01:41:39.116Z,18.80
2017-08-12T01:44:07.399Z,18.80
2017-08-12T01:46:35.685Z,18.60
2017-08-12T01:49:04.725Z,18.70
2017-08-12T01:51:33.019Z,18.60
2017-08-12T01:54:02.068Z,18.70
2017-08-12T01:56:30.383Z,18.60
2017-08-12T01:58:59.507Z,18.60
2017-08-12T02:01:27.793Z,18.50
2017-08-12T02:03:56.927Z,18.60
2017-08-12T02:06:26.025Z,18.60
2017-08-12T02:08:54.406Z,18.60
2017-08-12T02:11:22.672Z,18.50
2017-08-12T02:13:50.972Z,18.40
2017-08-12T02:16:19.260Z,18.60
2017-08-12T02:18:47.512Z,18.40
2017-08-12T02:21:15.795Z,18.60
2017-08-12T02:23:44.117Z,18.50
2017-08-12T02:26:12.431Z,18.70
2017-08-12T02:28:40.699Z,18.70
2017-08-12T02:31:08.992Z,18.60
2017-08-12T02:33:37.960Z,18.70
2017-08-12T02:36:06.217Z,18.50
2017-08-12T02:38:34.512Z,18.60
2017-08-12T02:41:03.576Z,18.30
2017-08-12T02:43:31.966Z,18.40
2017-08-12T02:46:00.227Z,18.40
2017-08-12T02:48:28.495Z,18.30
2017-08-12T02:50:56.785Z,18.40
2017-08-12T02:53:25.115Z,18.60
2017-08-12T02:55:53.373Z,18.50
2017-08-12T02:58:21.648Z,18.70
2017-08-12T03:00:50.882Z,18.40
2017-08-12T03:03:19.174Z,18.80
2017-08-12T03:05:47.528Z,18.60
2017-08-12T03:08:15.796Z,18.40
2017-08-12T03:10:44.183Z,18.40
2017-08-12T03:13:12.437Z,18.30
2017-08-12T03:15:40.739Z,18.30
2017-08-12T03:18:09.007Z,18.60
2017-08-12T03:20:37.252Z,18.20
2017-08-12T03:23:05.561Z,18.30
2017-08-12T03:25:33.836Z,18.30
2017-08-12T03:28:02.092Z,18.40
2017-08-12T03:30:30.499Z,18.30
2017-08-12T03:32:58.788Z,18.20
2017-08-12T03:35:27.103Z,18.30
2017-08-12T03:37:56.163Z,18.20
2017-08-12T03:40:24.439Z,18.50
2017-08-12T03:42:53.496Z,18.40
2017-08-12T03:45:21.770Z,18.40
2017-08-12T03:47:50.057Z,18.40
2017-08-12T03:50:18.328Z,18.50
2017-08-12T03:52:46.789Z,18.60
2017-08-12T03:55:15.837Z,18.40
2017-08-12T03:57:44.146Z,18.40
2017-08-12T04:00:12.420Z,18.60
2017-08-12T04:02:40.708Z,18.60
2017-08-12T04:05:09.712Z,18.30
2017-08-12T04:07:38.004Z,18.40
2017-08-12T04:10:06.387Z,18.50
2017-08-12T04:12:34.641Z,18.40
2017-08-12T04:15:03.675Z,18.10
2017-08-12T04:17:32.019Z,18.30
2017-08-12T04:20:00.322Z,18.40
2017-08-12T04:22:28.774Z,18.10
2017-08-12T04:24:57.795Z,17.90
2017-08-12T04:27:26.928Z,18.10
2017-08-12T04:29:55.275Z,18.30
2017-08-12T04:32:23.656Z,18.20
2017-08-12T04:34:51.911Z,18.10
2017-08-12T04:37:20.206Z,18.10
2017-08-12T04:39:48.470Z,18.00
2017-08-12T04:42:16.767Z,18.10
2017-08-12T04:44:45.082Z,18.00
2017-08-12T04:47:13.331Z,17.90
2017-08-12T04:49:42.358Z,18.10
2017-08-12T04:52:10.600Z,18.20
2017-08-12T04:54:38.863Z,18.40
2017-08-12T04:57:07.151Z,18.10
2017-08-12T04:59:35.459Z,18.00
2017-08-12T05:02:03.679Z,17.90
2017-08-12T05:04:32.039Z,18.10
2017-08-12T05:07:00.311Z,17.90
2017-08-12T05:09:28.556Z,17.80
2017-08-12T05:11:56.811Z,18.10
2017-08-12T05:14:25.063Z,18.20
2017-08-12T05:16:53.343Z,18.10
2017-08-12T05:19:21.602Z,18.30
2017-08-12T05:21:50.625Z,18.00
2017-08-12T05:24:18.880Z,18.10
2017-08-12T05:26:47.899Z,18.00
2017-08-12T05:29:16.208Z,17.90
2017-08-12T05:31:44.454Z,17.80
2017-08-12T05:34:12.714Z,17.90
2017-08-12T05:36:40.976Z,18.20
2017-08-12T05:39:10.004Z,17.90
2017-08-12T05:41:38.283Z,18.00
2017-08-12T05:44:06.570Z,17.70
2017-08-12T05:46:34.838Z,17.80
2017-08-12T05:49:03.072Z,17.80
2017-08-12T05:51:33.007Z,17.70
2017-08-12T05:54:01.280Z,17.80
2017-08-12T05:56:29.568Z,17.60
2017-08-12T05:58:57.878Z,17.80
2017-08-12T06:01:26.136Z,17.90
2017-08-12T06:03:54.418Z,17.70
2017-08-12T06:06:22.656Z,18.00
2017-08-12T06:08:50.940Z,17.70
2017-08-12T06:11:19.214Z,17.90
2017-08-12T06:13:47.483Z,17.80
2017-08-12T06:16:16.532Z,17.50
2017-08-12T06:18:44.795Z,17.60
2017-08-12T06:21:13.161Z,17.60
2017-08-12T06:23:41.434Z,17.80
2017-08-12T06:26:10.228Z,17.90
2017-08-12T06:28:38.494Z,17.90
2017-08-12T06:31:06.754Z,17.80
2017-08-12T06:33:35.165Z,17.90
2017-08-12T06:36:04.397Z,17.80
2017-08-12T06:38:33.445Z,17.60
2017-08-12T06:41:01.738Z,17.70
2017-08-12T06:43:30.100Z,17.70
2017-08-12T06:45:58.371Z,17.70
2017-08-12T06:48:26.663Z,17.50
2017-08-12T06:50:54.921Z,17.60
2017-08-12T06:53:23.180Z,17.60
2017-08-12T06:55:51.462Z,17.60
2017-08-12T06:58:19.740Z,17.60
2017-08-12T07:00:48.023Z,17.60
2017-08-12T07:03:16.275Z,17.70
2017-08-12T07:05:45.184Z,17.70
2017-08-12T07:08:13.459Z,17.90
2017-08-12T07:10:41.747Z,17.70
2017-08-12T07:13:10.090Z,18.00
2017-08-12T07:15:38.332Z,17.70
2017-08-12T07:18:06.611Z,17.90
2017-08-12T07:20:34.871Z,18.10
2017-08-12T07:23:03.133Z,17.90
2017-08-12T07:25:31.420Z,17.70
2017-08-12T07:27:59.693Z,17.90
2017-08-12T07:30:28.017Z,17.70
2017-08-12T07:32:56.298Z,17.90
2017-08-12T07:35:25.343Z,17.70
2017-08-12T07:37:53.625Z,17.60
2017-08-12T07:40:22.647Z,17.70
2017-08-12T07:42:51.104Z,17.50
2017-08-12T07:45:19.372Z,17.80
2017-08-12T07:47:47.626Z,17.90
2017-08-12T07:50:15.892Z,18.00
2017-08-12T07:52:44.158Z,18.00
2017-08-12T07:55:12.486Z,18.20
2017-08-12T07:57:40.772Z,18.10
2017-08-12T08:00:09.043Z,17.90
2017-08-12T08:02:37.386Z,18.10
2017-08-12T08:05:06.438Z,17.80
2017-08-12T08:07:34.698Z,18.00
2017-08-12T08:10:02.983Z,17.90
2017-08-12T08:12:31.259Z,18.10
2017-08-12T08:14:59.533Z,18.20
2017-08-12T08:17:27.940Z,18.30
2017-08-12T08:19:56.200Z,18.10
2017-08-12T08:22:30.183Z,18.10
2017-08-12T08:24:59.378Z,18.10
2017-08-12T08:27:27.732Z,18.10
2017-08-12T08:29:56.770Z,18.10
2017-08-12T08:32:25.117Z,18.10
2017-08-12T08:34:53.475Z,18.10
2017-08-12T08:37:21.789Z,18.20
2017-08-12T08:39:50.086Z,18.00
2017-08-12T08:42:18.477Z,18.20
2017-08-12T08:44:47.293Z,18.10
2017-08-12T08:47:15.667Z,18.00
2017-08-12T08:49:44.730Z,18.20
2017-08-12T08:52:13.032Z,18.20
2017-08-12T08:54:42.178Z,18.30
2017-08-12T08:57:10.480Z,18.10
2017-08-12T08:59:38.743Z,18.30
2017-08-12T09:02:07.118Z,18.20
2017-08-12T09:04:35.456Z,18.20
2017-08-12T09:07:03.868Z,18.30
2017-08-12T09:09:32.157Z,18.40
2017-08-12T09:12:00.429Z,18.40
2017-08-12T09:14:28.765Z,18.40
2017-08-12T09:16:57.812Z,18.30
2017-08-12T09:19:26.145Z,18.40
2017-08-12T09:21:54.496Z,18.60
2017-08-12T09:24:22.751Z,18.50
2017-08-12T09:26:51.049Z,18.40
2017-08-12T09:29:19.360Z,18.40
2017-08-12T09:31:48.388Z,18.40
2017-08-12T09:34:17.614Z,18.70
2017-08-12T09:36:45.878Z,18.60
2017-08-12T09:39:14.184Z,18.60
2017-08-12T09:41:43.187Z,18.40
2017-08-12T09:44:11.472Z,18.30
2017-08-12T09:46:40.495Z,18.30
2017-08-12T09:49:08.964Z,18.40
2017-08-12T09:51:37.209Z,18.30
2017-08-12T09:54:05.466Z,18.20
2017-08-12T09:56:33.773Z,18.60
2017-08-12T09:59:02.101Z,18.60
2017-08-12T10:01:31.196Z,18.80
2017-08-12T10:04:00.258Z,18.60
2017-08-12T10:06:28.541Z,18.90
2017-08-12T10:08:56.819Z,18.40
2017-08-12T10:11:25.111Z,18.80
2017-08-12T10:13:53.561Z,18.70
2017-08-12T10:16:21.796Z,18.60
2017-08-12T10:18:50.829Z,18.60
2017-08-12T10:21:19.099Z,18.40
2017-08-12T10:23:47.373Z,18.40
2017-08-12T10:26:15.656Z,18.60
2017-08-12T10:28:43.946Z,18.40
2017-08-12T10:31:12.237Z,18.90
2017-08-12T10:33:40.502Z,18.70
2017-08-12T10:36:08.745Z,18.90
2017-08-12T10:38:37.036Z,19.00
2017-08-12T10:41:05.312Z,18.80
2017-08-12T10:43:33.562Z,18.90
2017-08-12T10:46:02.624Z,18.70
2017-08-12T10:48:30.880Z,18.80
2017-08-12T10:50:59.166Z,18.70
2017-08-12T10:53:27.452Z,19.00
2017-08-12T10:55:55.723Z,18.70
2017-08-12T10:58:24.044Z,18.80
2017-08-12T11:00:53.077Z,18.80
2017-08-12T11:03:21.373Z,18.70
2017-08-12T11:05:49.644Z,18.90
2017-08-12T11:08:17.934Z,18.90
2017-08-12T11:10:46.300Z,18.90
2017-08-12T11:13:15.410Z,19.30
2017-08-12T11:15:43.827Z,19.30
2017-08-12T11:18:12.244Z,19.00
2017-08-12T11:20:40.597Z,19.00
2017-08-12T11:23:08.897Z,19.10
2017-08-12T11:25:37.156Z,19.20
2017-08-12T11:28:05.466Z,19.00
2017-08-12T11:30:34.497Z,19.00
2017-08-12T11:33:02.911Z,19.00
2017-08-12T11:35:31.155Z,19.10
2017-08-12T11:37:59.463Z,19.00
2017-08-12T11:40:27.765Z,19.00
2017-08-12T11:42:56.830Z,19.30
2017-08-12T11:45:25.938Z,19.30
2017-08-12T11:47:54.318Z,19.30
2017-08-12T11:50:22.701Z,19.30
2017-08-12T11:52:50.941Z,19.30
2017-08-12T11:55:19.221Z,19.60
2017-08-12T11:57:47.573Z,19.50
2017-08-12T12:00:15.841Z,19.20
2017-08-12T12:02:44.164Z,19.20
2017-08-12T12:05:12.569Z,19.00
2017-08-12T12:07:40.899Z,19.20
2017-08-12T12:10:09.184Z,19.30
2017-08-12T12:12:37.484Z,19.40
2017-08-12T12:15:05.746Z,19.50
2017-08-12T12:17:34.051Z,19.30
2017-08-12T12:20:02.328Z,19.40
2017-08-12T12:22:30.601Z,19.00
2017-08-12T12:24:58.879Z,19.30
2017-08-12T12:27:27.129Z,19.40
2017-08-12T12:29:55.433Z,19.40
2017-08-12T12:32:23.734Z,19.50
2017-08-12T12:34:52.797Z,19.20
2017-08-12T12:37:21.067Z,19.40
2017-08-12T12:39:50.140Z,19.50
2017-08-12T12:42:18.454Z,19.30
2017-08-12T12:44:47.545Z,19.40
2017-08-12T12:47:16.624Z,19.20
2017-08-12T12:49:44.938Z,19.30
2017-08-12T12:52:14.024Z,19.30
2017-08-12T12:54:42.266Z,19.50
2017-08-12T12:57:11.423Z,19.60
2017-08-12T12:59:39.676Z,19.30
2017-08-12T13:02:08.015Z,19.50
2017-08-12T13:04:37.072Z,19.40
2017-08-12T13:07:05.355Z,19.50
2017-08-12T13:09:33.640Z,19.50
2017-08-12T13:12:01.905Z,19.40
2017-08-12T13:14:30.215Z,19.70
2017-08-12T13:16:58.484Z,19.70
2017-08-12T13:19:26.770Z,19.60
2017-08-12T13:21:55.070Z,19.60
2017-08-12T13:24:24.170Z,19.90
2017-08-12T13:26:52.414Z,19.80
2017-08-12T13:29:20.692Z,19.50
2017-08-12T13:31:49.136Z,19.90
2017-08-12T13:34:17.429Z,19.70
2017-08-12T13:36:45.689Z,19.80
2017-08-12T13:39:13.993Z,19.70
2017-08-12T13:41:42.287Z,19.50
2017-08-12T13:44:10.623Z,19.70
2017-08-12T13:46:38.916Z,19.70
2017-08-12T13:49:07.215Z,19.80
2017-08-12T13:51:35.625Z,19.80
2017-08-12T13:54:03.848Z,19.70
2017-08-12T13:56:32.181Z,19.50
2017-08-12T13:59:00.512Z,19.70
2017-08-12T14:01:28.760Z,19.80
2017-08-12T14:03:57.064Z,19.80
2017-08-12T14:06:25.345Z,20.10
2017-08-12T14:08:53.666Z,20.20
2017-08-12T14:11:22.741Z,20.40
2017-08-12T14:13:51.113Z,20.10
2017-08-12T14:16:19.570Z,20.10
2017-08-12T14:18:47.823Z,20.30
2017-08-12T14:21:16.092Z,20.30
2017-08-12T14:23:44.410Z,19.90
2017-08-12T14:26:12.698Z,20.30
2017-08-12T14:28:41.000Z,20.30
2017-08-12T14:31:09.294Z,20.20
2017-08-12T14:33:38.370Z,20.30
2017-08-12T14:36:07.465Z,20.40
2017-08-12T14:38:36.045Z,20.30
2017-08-12T14:41:04.380Z,20.10
2017-08-12T14:43:32.702Z,20.40
2017-08-12T14:46:01.046Z,20.10
2017-08-12T14:48:29.296Z,20.40
2017-08-12T14:50:57.717Z,20.40
2017-08-12T14:53:26.800Z,20.30
2017-08-12T14:55:55.076Z,20.40
2017-08-12T14:58:23.352Z,20.30
2017-08-12T15:00:51.655Z,20.00
2017-08-12T15:03:20.285Z,20.40
2017-08-12T15:05:48.589Z,20.50
2017-08-12T15:08:16.919Z,20.50
2017-08-12T15:13:46.433Z,20.30
2017-08-12T15:16:14.729Z,20.70
2017-08-12T15:18:43.079Z,20.90
2017-08-12T15:21:11.475Z,20.40
2017-08-12T15:23:39.847Z,20.90
2017-08-12T15:26:08.104Z,20.90
2017-08-12T15:28:36.442Z,20.90
2017-08-12T15:31:04.732Z,20.90
2017-08-12T15:33:33.027Z,20.90
2017-08-12T15:36:01.329Z,20.90
2017-08-12T15:38:29.698Z,20.90
2017-08-12T15:40:57.981Z,20.90
2017-08-12T15:43:27.089Z,21.10
2017-08-12T15:45:56.247Z,20.80
2017-08-12T15:48:24.536Z,20.80
2017-08-12T15:50:52.839Z,20.90
2017-08-12T15:53:21.201Z,20.80
2017-08-12T15:55:49.470Z,20.90
2017-08-12T15:58:17.937Z,21.30
2017-08-12T16:00:46.194Z,21.20
2017-08-12T16:03:14.651Z,21.20
2017-08-12T16:05:43.024Z,21.30
2017-08-12T16:08:12.694Z,21.30
2017-08-12T16:10:40.994Z,21.30
2017-08-12T16:13:10.034Z,21.30
2017-08-12T16:15:38.338Z,21.30
2017-08-12T16:18:06.736Z,21.30
2017-08-12T16:20:35.022Z,21.30
2017-08-12T16:23:04.073Z,21.30
2017-08-12T16:25:32.588Z,21.30
2017-08-12T16:28:00.914Z,21.20
2017-08-12T16:30:29.216Z,21.20
2017-08-12T16:32:57.515Z,21.20
2017-08-12T16:35:25.798Z,21.20
2017-08-12T16:37:54.854Z,21.10
2017-08-12T16:40:23.147Z,21.10
2017-08-12T16:42:51.424Z,20.60
2017-08-12T16:45:19.719Z,20.90
2017-08-12T16:47:48.809Z,21.00
2017-08-12T16:50:17.245Z,21.00
2017-08-12T16:52:45.693Z,21.00
2017-08-12T16:55:14.774Z,21.10
2017-08-12T16:57:43.114Z,20.80
2017-08-12T17:00:11.426Z,20.90
2017-08-12T17:02:39.737Z,20.60
2017-08-12T17:05:08.068Z,21.00
2017-08-12T17:07:36.355Z,21.00
2017-08-12T17:10:04.838Z,21.10
2017-08-12T17:12:33.105Z,21.00
2017-08-12T17:15:01.392Z,21.00
2017-08-12T17:17:30.560Z,21.00
2017-08-12T17:19:58.883Z,20.90
2017-08-12T17:22:28.089Z,20.90
2017-08-12T17:24:57.263Z,20.90
2017-08-12T17:27:25.638Z,20.90
2017-08-12T17:29:54.835Z,21.00
2017-08-12T17:32:23.120Z,20.60
2017-08-12T17:34:52.041Z,20.90
2017-08-12T17:37:21.102Z,20.80
2017-08-12T17:39:49.338Z,21.00
2017-08-12T17:42:17.743Z,21.00
2017-08-12T17:44:45.986Z,20.90
2017-08-12T17:47:14.284Z,21.10
2017-08-12T17:49:42.520Z,20.90
2017-08-12T17:52:10.824Z,20.60
2017-08-12T17:54:39.103Z,20.60
2017-08-12T17:57:07.427Z,20.50
2017-08-12T17:59:35.705Z,20.70
2017-08-12T18:02:04.043Z,20.70
2017-08-12T18:04:32.415Z,20.60
2017-08-12T18:07:01.046Z,20.80
2017-08-12T18:09:29.311Z,20.70
2017-08-12T18:11:58.511Z,20.70
2017-08-12T18:14:27.582Z,20.60
2017-08-12T18:16:55.944Z,20.50
2017-08-12T18:19:24.234Z,20.10
2017-08-12T18:21:52.543Z,20.20
2017-08-12T18:24:20.830Z,20.60
2017-08-12T18:26:50.075Z,20.50
2017-08-12T18:29:18.464Z,20.60
2017-08-12T18:31:47.716Z,20.20
2017-08-12T18:34:16.784Z,20.50
2017-08-12T18:36:45.167Z,20.50
2017-08-12T18:39:13.464Z,20.60
2017-08-12T18:41:42.647Z,20.50
2017-08-12T18:44:11.122Z,20.40
2017-08-12T18:46:40.325Z,20.70
2017-08-12T18:49:08.659Z,20.70
2017-08-12T18:51:37.179Z,20.90
2017-08-12T18:54:05.724Z,20.60
2017-08-12T18:56:34.146Z,20.40
2017-08-12T18:59:03.235Z,20.50
2017-08-12T19:01:32.390Z,20.60
2017-08-12T19:04:00.758Z,20.60
2017-08-12T19:06:29.959Z,20.70
2017-08-12T19:08:58.251Z,20.70
2017-08-12T19:11:26.568Z,20.70
2017-08-12T19:13:55.616Z,20.70
2017-08-12T19:16:23.889Z,20.50
2017-08-12T19:18:52.198Z,20.70
2017-08-12T19:21:20.622Z,20.60
2017-08-12T19:23:48.943Z,20.20
2017-08-12T19:26:17.239Z,20.60
2017-08-12T19:28:45.908Z,20.60
2017-08-12T19:31:14.211Z,20.80
2017-08-12T19:33:43.266Z,20.10
2017-08-12T19:36:11.538Z,20.70
2017-08-12T19:38:39.810Z,20.60
2017-08-12T19:41:08.992Z,20.60
2017-08-12T19:43:37.440Z,20.70
2017-08-12T19:46:05.724Z,20.40
2017-08-12T19:48:34.034Z,20.60
2017-08-12T19:51:02.648Z,20.60
2017-08-12T19:53:31.007Z,20.50
2017-08-12T19:55:59.306Z,20.70
2017-08-12T19:58:27.597Z,20.50
2017-08-12T20:00:55.882Z,20.50
2017-08-12T20:03:24.214Z,20.20
2017-08-12T20:05:52.514Z,20.60
2017-08-12T20:08:20.773Z,20.40
2017-08-12T20:10:49.910Z,20.40
2017-08-12T20:13:18.536Z,20.80
2017-08-12T20:15:46.820Z,20.80
2017-08-12T20:18:15.182Z,20.90
2017-08-12T20:20:43.525Z,20.90
2017-08-12T20:23:11.911Z,20.90
2017-08-12T20:25:40.945Z,20.80
2017-08-12T20:28:09.575Z,20.70
2017-08-12T20:30:37.817Z,20.80
2017-08-12T20:33:06.186Z,20.70
2017-08-12T20:35:34.516Z,20.70
2017-08-12T20:38:03.582Z,20.50
2017-08-12T20:40:31.836Z,20.80
2017-08-12T20:43:00.150Z,20.80
2017-08-12T20:45:28.540Z,20.80
2017-08-12T20:47:56.774Z,20.50
2017-08-12T20:50:25.489Z,20.80
2017-08-12T20:52:53.767Z,20.70
2017-08-12T20:55:22.070Z,20.70
2017-08-12T20:57:50.540Z,20.80
2017-08-12T21:00:18.874Z,20.90
2017-08-12T21:02:47.396Z,20.70
2017-08-12T21:05:16.111Z,21.00
2017-08-12T21:07:45.192Z,20.90
2017-08-12T21:10:14.287Z,20.70
2017-08-12T21:12:42.742Z,20.60
2017-08-12T21:15:11.885Z,20.20
2017-08-12T21:17:40.151Z,20.50
2017-08-12T21:20:08.527Z,21.00
2017-08-12T21:22:37.694Z,20.80
2017-08-12T21:25:08.029Z,20.70
2017-08-12T21:27:36.470Z,20.70
2017-08-12T21:30:04.774Z,20.50
2017-08-12T21:32:33.029Z,20.80
2017-08-12T21:35:01.399Z,20.90
2017-08-12T21:37:29.817Z,20.70
2017-08-12T21:39:58.107Z,20.60
2017-08-12T21:42:27.473Z,20.70
2017-08-12T21:44:55.760Z,20.70
2017-08-12T21:47:24.339Z,20.80
2017-08-12T21:49:54.821Z,20.70
2017-08-12T21:52:23.940Z,20.80
2017-08-12T21:54:52.303Z,20.90
2017-08-12T21:57:20.606Z,20.80
2017-08-12T21:59:48.948Z,20.40
2017-08-12T22:02:18.056Z,21.10
2017-08-12T22:04:46.337Z,20.70
2017-08-12T22:07:14.611Z,20.70
2017-08-12T22:09:42.942Z,20.40
2017-08-12T22:12:11.186Z,20.60
2017-08-12T22:14:40.369Z,20.70
2017-08-12T22:20:08.538Z,20.80
2017-08-12T22:22:36.998Z,20.70
2017-08-12T22:25:05.318Z,20.90
2017-08-12T22:27:33.801Z,20.70
2017-08-12T22:30:02.135Z,20.80
2017-08-12T22:32:30.526Z,20.60
2017-08-12T22:34:59.659Z,20.90
2017-08-12T22:37:28.285Z,20.40
2017-08-12T22:39:56.623Z,20.80
2017-08-12T22:42:24.873Z,20.90
2017-08-12T22:44:53.327Z,20.50
2017-08-12T22:47:22.514Z,21.10
2017-08-12T22:49:50.874Z,20.80
2017-08-12T22:52:19.254Z,21.00
2017-08-12T22:54:48.447Z,21.10
2017-08-12T22:57:16.758Z,21.00
2017-08-12T22:59:45.084Z,20.90
2017-08-12T23:02:13.661Z,20.50
2017-08-12T23:04:41.926Z,21.00
2017-08-12T23:07:10.391Z,20.90
2017-08-12T23:09:38.679Z,21.00
2017-08-12T23:12:07.126Z,20.90
2017-08-12T23:14:36.324Z,20.90
2017-08-12T23:17:04.671Z,20.80
2017-08-12T23:19:33.021Z,20.90
2017-08-12T23:22:01.367Z,20.90
2017-08-12T23:24:30.424Z,20.50
2017-08-12T23:26:58.839Z,20.80
2017-08-12T23:29:27.173Z,20.80
2017-08-12T23:31:55.615Z,20.80
2017-08-12T23:34:24.236Z,20.90
2017-08-12T23:36:53.679Z,20.80
2017-08-12T23:39:22.305Z,20.80
2017-08-12T23:41:50.774Z,20.80
2017-08-12T23:44:19.180Z,21.00
2017-08-12T23:46:47.612Z,20.90
2017-08-12T23:49:15.937Z,20.80
2017-08-12T23:51:45.060Z,20.70
2017-08-12T23:54:13.444Z,20.80
2017-08-12T23:56:41.854Z,21.00
2017-08-12T23:59:10.381Z,20.60
